createdAt,value
2022-09-01T00:00:11.246Z,16.60
2022-09-01T00:03:13.207Z,16.70
2022-09-01T00:06:22.330Z,16.70
2022-09-01T00:09:24.448Z,16.70
2022-09-01T00:12:27.289Z,16.60
2022-09-01T00:15:29.032Z,16.60
2022-09-01T00:18:32.638Z,16.40
2022-09-01T00:21:39.356Z,16.40
2022-09-01T00:24:41.099Z,16.40
2022-09-01T00:27:44.042Z,16.30
2022-09-01T00:30:46.037Z,16.30
2022-09-01T00:33:49.149Z,16.20
2022-09-01T00:36:50.939Z,16.30
2022-09-01T00:39:52.698Z,16.10
2022-09-01T00:42:54.497Z,16.10
2022-09-01T00:45:57.734Z,16.00
2022-09-01T00:49:05.829Z,15.90
2022-09-01T00:52:13.444Z,16.00
2022-09-01T00:55:21.681Z,16.00
2022-09-01T00:58:23.737Z,16.00
2022-09-01T01:01:26.079Z,15.90
2022-09-01T01:04:27.835Z,15.80
2022-09-01T01:07:29.791Z,15.80
2022-09-01T01:10:36.504Z,15.80
2022-09-01T01:13:55.865Z,15.90
2022-09-01T01:16:59.169Z,15.80
2022-09-01T01:20:20.058Z,15.80
2022-09-01T01:23:28.733Z,15.70
2022-09-01T01:26:30.444Z,15.70
2022-09-01T01:29:34.743Z,15.60
2022-09-01T01:32:37.697Z,15.60
2022-09-01T01:35:39.920Z,15.60
2022-09-01T01:38:44.815Z,15.60
2022-09-01T01:41:48.807Z,15.60
2022-09-01T01:44:52.331Z,15.60
2022-09-01T01:47:56.519Z,15.60
2022-09-01T01:50:59.494Z,15.60
2022-09-01T01:54:05.670Z,15.50
2022-09-01T01:57:08.295Z,15.40
2022-09-01T02:00:11.388Z,15.50
2022-09-01T02:03:19.875Z,15.40
2022-09-01T02:06:24.905Z,15.30
2022-09-01T02:09:29.315Z,15.20
2022-09-01T02:12:32.594Z,15.20
2022-09-01T02:15:44.259Z,15.20
2022-09-01T02:18:49.852Z,15.20
2022-09-01T02:21:56.015Z,15.10
2022-09-01T02:24:57.742Z,15.00
2022-09-01T02:28:00.436Z,15.10
2022-09-01T02:31:02.542Z,15.00
2022-09-01T02:34:07.028Z,14.90
2022-09-01T02:37:08.825Z,14.90
2022-09-01T02:40:15.877Z,14.80
2022-09-01T02:43:20.327Z,14.80
2022-09-01T02:46:24.308Z,14.90
2022-09-01T02:49:28.523Z,14.80
2022-09-01T02:52:35.448Z,14.70
2022-09-01T02:55:39.031Z,14.70
2022-09-01T02:58:46.335Z,14.70
2022-09-01T03:01:53.790Z,14.60
2022-09-01T03:04:57.312Z,14.60
2022-09-01T03:08:02.216Z,14.60
2022-09-01T03:11:12.708Z,14.60
2022-09-01T03:14:15.517Z,14.60
2022-09-01T03:17:17.271Z,14.50
2022-09-01T03:20:21.583Z,14.50
2022-09-01T03:23:25.322Z,14.40
2022-09-01T03:26:28.391Z,14.50
2022-09-01T03:29:30.194Z,14.50
2022-09-01T03:32:32.494Z,14.50
2022-09-01T03:35:34.508Z,14.40
2022-09-01T03:38:36.732Z,14.50
2022-09-01T03:41:39.941Z,14.50
2022-09-01T03:44:44.145Z,14.60
2022-09-01T03:47:49.570Z,14.60
2022-09-01T03:50:51.354Z,14.60
2022-09-01T03:53:57.343Z,14.40
2022-09-01T03:57:01.709Z,14.50
2022-09-01T04:00:05.217Z,14.40
2022-09-01T04:03:28.587Z,14.30
2022-09-01T04:06:30.984Z,14.40
2022-09-01T04:09:35.217Z,14.30
2022-09-01T04:12:37.819Z,14.20
2022-09-01T04:15:39.693Z,14.20
2022-09-01T04:18:41.809Z,14.20
2022-09-01T04:21:44.735Z,14.10
2022-09-01T04:24:48.033Z,14.10
2022-09-01T04:27:55.387Z,14.00
2022-09-01T04:30:58.743Z,13.90
2022-09-01T04:34:02.064Z,14.10
2022-09-01T04:37:13.055Z,14.00
2022-09-01T04:40:14.883Z,14.00
2022-09-01T04:43:16.940Z,14.00
2022-09-01T04:46:19.938Z,13.90
2022-09-01T04:49:26.354Z,14.10
2022-09-01T04:52:28.856Z,14.10
2022-09-01T04:55:32.108Z,14.10
2022-09-01T04:58:34.071Z,14.00
2022-09-01T05:01:43.242Z,14.10
2022-09-01T05:04:46.260Z,14.20
2022-09-01T05:07:54.457Z,14.20
2022-09-01T05:10:57.545Z,14.10
2022-09-01T05:14:13.391Z,14.20
2022-09-01T05:17:17.460Z,14.10
2022-09-01T05:20:20.719Z,14.20
2022-09-01T05:23:23.429Z,14.10
2022-09-01T05:26:28.255Z,14.10
2022-09-01T05:29:30.380Z,14.20
2022-09-01T05:32:33.513Z,14.30
2022-09-01T05:35:37.066Z,14.30
2022-09-01T05:38:42.057Z,14.30
2022-09-01T05:41:45.895Z,14.30
2022-09-01T05:44:48.832Z,14.40
2022-09-01T05:47:54.894Z,14.50
2022-09-01T05:50:59.666Z,14.50
2022-09-01T05:54:02.528Z,14.70
2022-09-01T05:57:30.369Z,14.80
2022-09-01T06:00:34.679Z,14.70
2022-09-01T06:03:38.065Z,14.90
2022-09-01T06:07:05.396Z,15.00
2022-09-01T06:10:08.746Z,15.20
2022-09-01T06:13:11.537Z,15.30
2022-09-01T06:16:19.572Z,15.40
2022-09-01T06:19:21.308Z,15.60
2022-09-01T06:22:25.260Z,15.60
2022-09-01T06:25:30.452Z,15.60
2022-09-01T06:28:32.899Z,15.70
2022-09-01T06:31:39.132Z,15.70
2022-09-01T06:34:44.532Z,15.80
2022-09-01T06:37:48.449Z,15.90
2022-09-01T06:41:12.914Z,16.00
2022-09-01T06:44:14.812Z,16.10
2022-09-01T06:47:24.240Z,16.20
2022-09-01T06:53:56.390Z,16.30
2022-09-01T06:58:03.357Z,16.40
2022-09-01T07:00:26.624Z,16.40
2022-09-01T07:03:30.785Z,16.60
2022-09-01T07:10:23.965Z,16.70
2022-09-01T07:13:36.338Z,16.80
2022-09-01T07:16:52.049Z,16.90
2022-09-01T07:19:56.005Z,17.00
2022-09-01T07:23:04.482Z,17.20
2022-09-01T07:29:44.892Z,17.40
2022-09-01T07:32:48.555Z,17.60
2022-09-01T07:46:40.781Z,18.20
2022-09-01T07:50:12.461Z,18.10
2022-09-01T07:53:18.309Z,18.30
2022-09-01T07:56:23.175Z,18.40
2022-09-01T07:59:27.842Z,18.40
2022-09-01T08:02:56.624Z,18.70
2022-09-01T08:06:06.486Z,18.70
2022-09-01T08:09:11.932Z,18.80
2022-09-01T08:12:29.431Z,18.90
2022-09-01T08:15:40.539Z,19.10
2022-09-01T08:18:53.502Z,19.20
2022-09-01T08:22:01.964Z,19.10
2022-09-01T08:25:15.584Z,19.20
2022-09-01T08:28:26.472Z,19.40
2022-09-01T08:31:31.306Z,19.60
2022-09-01T08:34:35.101Z,20.00
2022-09-01T08:37:38.389Z,20.20
2022-09-01T08:40:42.502Z,20.00
2022-09-01T08:43:52.365Z,20.20
2022-09-01T08:47:15.306Z,20.20
2022-09-01T08:50:20.568Z,20.60
2022-09-01T08:54:13.754Z,20.60
2022-09-01T08:57:22.197Z,20.80
2022-09-01T09:01:03.609Z,21.00
2022-09-01T09:04:27.208Z,21.20
2022-09-01T09:07:35.193Z,21.10
2022-09-01T09:10:56.338Z,21.80
2022-09-01T09:14:14.670Z,21.60
2022-09-01T09:17:21.460Z,21.60
2022-09-01T09:20:23.670Z,22.00
2022-09-01T09:23:31.241Z,22.00
2022-09-01T09:26:48.321Z,22.50
2022-09-01T09:29:56.600Z,22.50
2022-09-01T09:36:36.060Z,23.00
2022-09-01T09:39:37.931Z,23.40
2022-09-01T09:43:01.693Z,23.10
2022-09-01T09:46:24.639Z,23.10
2022-09-01T09:49:41.500Z,23.30
2022-09-01T09:52:46.813Z,23.80
2022-09-01T09:55:58.511Z,23.80
2022-09-01T09:59:00.305Z,24.00
2022-09-01T10:02:31.085Z,24.50
2022-09-01T10:05:48.687Z,24.80
2022-09-01T10:08:50.438Z,25.40
2022-09-01T10:11:55.965Z,25.80
2022-09-01T10:15:12.742Z,25.90
2022-09-01T10:18:21.037Z,26.10
2022-09-01T10:21:41.303Z,26.30
2022-09-01T10:24:45.867Z,27.00
2022-09-01T10:28:05.893Z,26.70
2022-09-01T10:31:09.091Z,26.40
2022-09-01T10:34:19.433Z,26.40
2022-09-01T10:37:23.380Z,25.80
2022-09-01T10:40:31.086Z,25.10
2022-09-01T10:43:48.824Z,25.60
2022-09-01T10:46:52.469Z,25.90
2022-09-01T10:49:54.217Z,25.20
2022-09-01T10:53:02.930Z,25.00
2022-09-01T10:56:43.582Z,24.00
2022-09-01T10:59:56.403Z,24.10
2022-09-01T11:03:31.724Z,23.80
2022-09-01T11:07:16.584Z,24.10
2022-09-01T11:10:34.831Z,23.70
2022-09-01T11:13:54.089Z,23.80
2022-09-01T11:17:17.146Z,24.00
2022-09-01T11:20:29.351Z,23.80
2022-09-01T11:23:31.449Z,23.50
2022-09-01T11:26:33.113Z,23.50
2022-09-01T11:30:16.081Z,23.50
2022-09-01T11:33:36.725Z,23.50
2022-09-01T11:36:38.388Z,23.50
2022-09-01T11:39:41.743Z,23.50
2022-09-01T11:42:46.740Z,23.00
2022-09-01T11:46:17.560Z,23.00
2022-09-01T11:49:40.067Z,23.40
2022-09-01T11:52:42.139Z,23.70
2022-09-01T11:55:46.693Z,23.90
2022-09-01T11:58:48.463Z,23.60
2022-09-01T12:01:57.520Z,23.00
2022-09-01T12:05:01.758Z,23.00
2022-09-01T12:08:18.224Z,23.30
2022-09-01T12:11:31.987Z,23.50
2022-09-01T12:14:55.072Z,23.40
2022-09-01T12:18:11.808Z,23.20
2022-09-01T12:21:24.868Z,23.20
2022-09-01T12:24:28.281Z,23.30
2022-09-01T12:27:30.204Z,23.50
2022-09-01T12:30:35.413Z,23.50
2022-09-01T12:33:37.630Z,23.40
2022-09-01T12:36:39.732Z,23.20
2022-09-01T12:39:48.990Z,23.40
2022-09-01T12:42:52.613Z,23.40
2022-09-01T12:45:54.576Z,23.20
2022-09-01T12:49:17.414Z,23.40
2022-09-01T12:52:25.197Z,23.50
2022-09-01T12:59:02.883Z,23.50
2022-09-01T13:02:34.643Z,23.90
2022-09-01T13:05:51.836Z,23.80
2022-09-01T13:08:53.680Z,23.60
2022-09-01T13:12:10.115Z,23.50
2022-09-01T13:18:21.579Z,23.60
2022-09-01T13:21:24.452Z,23.50
2022-09-01T13:24:30.268Z,23.20
2022-09-01T13:27:33.232Z,23.30
2022-09-01T13:30:35.289Z,23.30
2022-09-01T13:36:58.717Z,23.60
2022-09-01T13:40:01.640Z,23.60
2022-09-01T13:43:04.648Z,23.70
2022-09-01T13:46:06.875Z,23.80
2022-09-01T13:52:32.843Z,23.80
2022-09-01T13:55:39.337Z,23.80
2022-09-01T13:58:41.032Z,23.90
2022-09-01T14:01:42.922Z,23.70
2022-09-01T14:04:44.677Z,23.90
2022-09-01T14:07:46.606Z,23.90
2022-09-01T14:10:51.304Z,23.90
2022-09-01T14:13:53.360Z,23.80
2022-09-01T14:16:55.085Z,23.90
2022-09-01T14:19:57.468Z,24.10
2022-09-01T14:22:59.610Z,24.10
2022-09-01T14:26:01.408Z,24.00
2022-09-01T14:29:03.295Z,23.90
2022-09-01T14:32:07.789Z,24.10
2022-09-01T14:35:10.050Z,24.20
2022-09-01T14:38:13.439Z,24.30
2022-09-01T14:41:16.685Z,24.30
2022-09-01T14:44:18.436Z,24.80
2022-09-01T14:47:21.266Z,25.20
2022-09-01T14:50:23.811Z,24.90
2022-09-01T14:53:25.688Z,24.80
2022-09-01T14:56:27.471Z,24.80
2022-09-01T14:59:29.214Z,25.50
2022-09-01T15:02:32.918Z,25.20
2022-09-01T15:05:39.449Z,25.00
2022-09-01T15:08:42.629Z,24.60
2022-09-01T15:11:44.445Z,24.50
2022-09-01T15:14:47.391Z,24.30
2022-09-01T15:17:49.498Z,24.20
2022-09-01T15:20:51.645Z,24.10
2022-09-01T15:23:54.051Z,24.20
2022-09-01T15:26:56.009Z,24.00
2022-09-01T15:29:57.901Z,24.00
2022-09-01T15:32:59.849Z,23.80
2022-09-01T15:36:01.655Z,23.70
2022-09-01T15:39:03.789Z,23.80
2022-09-01T15:42:05.967Z,23.80
2022-09-01T15:45:14.127Z,23.90
2022-09-01T15:48:15.858Z,23.90
2022-09-01T15:51:20.291Z,23.80
2022-09-01T15:54:22.060Z,23.80
2022-09-01T15:57:23.831Z,23.80
2022-09-01T16:00:26.919Z,23.70
2022-09-01T16:03:31.893Z,23.70
2022-09-01T16:06:34.975Z,23.70
2022-09-01T16:09:37.194Z,23.60
2022-09-01T16:12:43.322Z,23.60
2022-09-01T16:15:51.062Z,23.50
2022-09-01T16:19:05.089Z,23.50
2022-09-01T16:22:12.082Z,23.40
2022-09-01T16:25:29.932Z,23.50
2022-09-01T16:28:36.956Z,23.40
2022-09-01T16:31:38.899Z,23.40
2022-09-01T16:34:46.910Z,23.30
2022-09-01T16:38:00.344Z,23.30
2022-09-01T16:41:22.378Z,23.20
2022-09-01T16:44:42.254Z,23.10
2022-09-01T16:47:45.013Z,23.00
2022-09-01T16:51:15.765Z,23.00
2022-09-01T16:54:37.463Z,23.00
2022-09-01T16:57:54.131Z,23.00
2022-09-01T17:01:19.481Z,22.90
2022-09-01T17:04:36.931Z,22.90
2022-09-01T17:07:45.099Z,22.80
2022-09-01T17:10:50.578Z,22.80
2022-09-01T17:13:52.751Z,22.70
2022-09-01T17:17:08.099Z,22.70
2022-09-01T17:20:10.521Z,22.60
2022-09-01T17:23:19.261Z,22.60
2022-09-01T17:26:31.261Z,22.60
2022-09-01T17:29:43.444Z,22.50
2022-09-01T17:33:18.595Z,22.40
2022-09-01T17:37:01.891Z,22.30
2022-09-01T17:40:21.780Z,22.20
2022-09-01T17:43:47.941Z,22.20
2022-09-01T17:47:21.456Z,22.10
2022-09-01T17:50:54.153Z,22.00
2022-09-01T17:54:08.150Z,21.90
2022-09-01T17:57:28.505Z,21.90
2022-09-01T18:00:39.905Z,21.80
2022-09-01T18:03:45.403Z,21.70
2022-09-01T18:07:01.357Z,21.60
2022-09-01T18:10:06.455Z,21.60
2022-09-01T18:13:30.666Z,21.40
2022-09-01T18:17:07.931Z,21.30
2022-09-01T18:20:16.611Z,21.20
2022-09-01T18:23:19.181Z,21.10
2022-09-01T18:26:24.601Z,21.00
2022-09-01T18:29:29.665Z,20.90
2022-09-01T18:32:43.015Z,20.80
2022-09-01T18:35:52.713Z,20.80
2022-09-01T18:39:22.145Z,20.70
2022-09-01T18:42:44.371Z,20.60
2022-09-01T18:45:49.121Z,20.50
2022-09-01T18:49:09.623Z,20.50
2022-09-01T18:52:38.672Z,20.40
2022-09-01T18:55:48.330Z,20.40
2022-09-01T18:59:15.060Z,20.30
2022-09-01T19:02:46.647Z,20.10
2022-09-01T19:06:16.236Z,20.00
2022-09-01T19:09:28.400Z,20.00
2022-09-01T19:12:43.988Z,20.00
2022-09-01T19:16:08.949Z,19.90
2022-09-01T19:19:47.583Z,19.80
2022-09-01T19:23:02.416Z,19.60
2022-09-01T19:26:07.137Z,19.60
2022-09-01T19:29:16.508Z,19.60
2022-09-01T19:32:21.001Z,19.50
2022-09-01T19:35:23.039Z,19.50
2022-09-01T19:38:27.779Z,19.40
2022-09-01T19:41:42.867Z,19.20
2022-09-01T19:45:12.386Z,19.10
2022-09-01T19:48:33.062Z,19.00
2022-09-01T19:52:01.967Z,19.10
2022-09-01T19:55:22.438Z,19.00
2022-09-01T19:58:31.109Z,18.80
2022-09-01T20:01:57.545Z,18.70
2022-09-01T20:05:25.784Z,18.70
2022-09-01T20:08:41.717Z,18.50
2022-09-01T20:11:57.402Z,18.40
2022-09-01T20:15:28.775Z,18.40
2022-09-01T20:18:38.922Z,18.30
2022-09-01T20:21:45.176Z,18.40
2022-09-01T20:24:47.215Z,18.50
2022-09-01T20:28:06.895Z,18.40
2022-09-01T20:31:31.968Z,18.40
2022-09-01T20:34:48.329Z,18.40
2022-09-01T20:37:56.201Z,18.30
2022-09-01T20:41:05.798Z,18.10
2022-09-01T20:44:23.193Z,18.10
2022-09-01T20:47:28.653Z,18.10
2022-09-01T20:50:43.334Z,18.00
2022-09-01T20:54:13.271Z,17.90
2022-09-01T20:57:32.192Z,17.90
2022-09-01T21:00:47.159Z,17.90
2022-09-01T21:04:02.193Z,17.90
2022-09-01T21:07:13.025Z,17.80
2022-09-01T21:10:35.272Z,17.80
2022-09-01T21:14:18.861Z,17.70
2022-09-01T21:17:52.477Z,17.70
2022-09-01T21:20:54.132Z,17.60
2022-09-01T21:23:55.941Z,17.50
2022-09-01T21:26:59.529Z,17.60
2022-09-01T21:30:13.028Z,17.60
2022-09-01T21:33:15.290Z,17.60
2022-09-01T21:36:17.931Z,17.50
2022-09-01T21:39:19.755Z,17.40
2022-09-01T21:42:25.994Z,17.40
2022-09-01T21:45:28.044Z,17.40
2022-09-01T21:48:30.861Z,17.40
2022-09-01T21:51:32.698Z,17.30
2022-09-01T21:54:35.154Z,17.30
2022-09-01T21:57:37.346Z,17.30
2022-09-01T22:00:40.278Z,17.30
2022-09-01T22:03:42.008Z,17.20
2022-09-01T22:06:44.755Z,17.20
2022-09-01T22:09:47.641Z,17.20
2022-09-01T22:12:50.363Z,17.10
2022-09-01T22:15:53.928Z,17.10
2022-09-01T22:18:55.655Z,17.00
2022-09-01T22:21:58.641Z,16.90
2022-09-01T22:25:04.335Z,17.00
2022-09-01T22:28:06.389Z,16.90
2022-09-01T22:31:16.716Z,16.80
2022-09-01T22:34:18.501Z,16.70
2022-09-01T22:37:20.235Z,16.70
2022-09-01T22:40:22.059Z,16.60
2022-09-01T22:43:24.390Z,16.60
2022-09-01T22:46:26.908Z,16.60
2022-09-01T22:49:28.701Z,16.50
2022-09-01T22:52:30.552Z,16.50
2022-09-01T22:55:36.168Z,16.50
2022-09-01T22:58:38.227Z,16.40
2022-09-01T23:01:42.556Z,16.30
2022-09-01T23:04:46.517Z,16.30
2022-09-01T23:07:48.205Z,16.30
2022-09-01T23:10:49.929Z,16.30
2022-09-01T23:13:52.629Z,16.20
2022-09-01T23:16:54.718Z,16.20
2022-09-01T23:19:59.167Z,16.10
2022-09-01T23:23:00.901Z,16.10
2022-09-01T23:26:08.051Z,16.20
2022-09-01T23:29:10.059Z,16.20
2022-09-01T23:32:11.798Z,16.20
2022-09-01T23:35:14.020Z,16.10
2022-09-01T23:38:20.383Z,16.10
2022-09-01T23:41:30.846Z,16.10
2022-09-01T23:44:32.547Z,16.00
2022-09-01T23:47:35.502Z,15.90
2022-09-01T23:50:46.257Z,16.00
2022-09-01T23:53:48.395Z,15.90
2022-09-01T23:56:50.183Z,15.90
2022-09-01T23:59:55.312Z,15.90
